createdAt,value
2019-02-28T00:00:40.713Z,-0.92
2019-02-28T00:03:10.842Z,-0.98
2019-02-28T00:05:41.280Z,-0.97
2019-02-28T00:08:11.672Z,-0.95
2019-02-28T00:10:42.318Z,-0.99
2019-02-28T00:13:12.712Z,-1.11
2019-02-28T00:15:43.113Z,-1.02
2019-02-28T00:18:15.193Z,-1.08
2019-02-28T00:20:45.629Z,-1.08
2019-02-28T00:23:16.044Z,-1.17
2019-02-28T00:25:46.487Z,-1.32
2019-02-28T00:28:16.933Z,-1.32
2019-02-28T00:30:47.338Z,-1.40
2019-02-28T00:33:17.741Z,-1.46
2019-02-28T00:35:48.141Z,-1.46
2019-02-28T00:38:18.552Z,-1.50
2019-02-28T00:40:48.941Z,-1.51
2019-02-28T00:43:19.361Z,-1.52
2019-02-28T00:45:51.467Z,-1.56
2019-02-28T00:48:22.403Z,-1.55
2019-02-28T00:50:52.868Z,-1.61
2019-02-28T00:53:23.270Z,-1.63
2019-02-28T00:55:53.660Z,-1.63
2019-02-28T00:58:28.869Z,-1.64
2019-02-28T01:00:58.969Z,-1.69
2019-02-28T01:03:29.357Z,-1.74
2019-02-28T01:05:59.778Z,-1.67
2019-02-28T01:08:30.170Z,-1.68
2019-02-28T01:11:00.593Z,-1.72
2019-02-28T01:13:30.979Z,-1.76
2019-02-28T01:16:01.418Z,-1.79
2019-02-28T01:18:34.433Z,-1.82
2019-02-28T01:21:03.868Z,-1.80
2019-02-28T01:23:34.253Z,-1.84
2019-02-28T01:26:04.639Z,-1.98
2019-02-28T01:28:35.027Z,-1.91
2019-02-28T01:31:05.461Z,-1.93
2019-02-28T01:33:35.822Z,-1.92
2019-02-28T01:36:06.300Z,-1.89
2019-02-28T01:38:36.670Z,-1.91
2019-02-28T01:41:08.310Z,-1.88
2019-02-28T01:43:39.184Z,-1.94
2019-02-28T01:46:09.604Z,-1.93
2019-02-28T01:48:40.034Z,-2.02
2019-02-28T01:51:10.444Z,-1.97
2019-02-28T01:53:40.865Z,-1.96
2019-02-28T01:56:11.287Z,-1.96
2019-02-28T01:58:41.674Z,-1.93
2019-02-28T02:01:12.073Z,-1.95
2019-02-28T02:03:42.455Z,-1.96
2019-02-28T02:06:12.829Z,-1.86
2019-02-28T02:08:43.220Z,-1.82
2019-02-28T02:11:13.662Z,-1.82
2019-02-28T02:13:44.090Z,-1.84
2019-02-28T02:16:14.462Z,-1.84
2019-02-28T02:18:44.827Z,-1.91
2019-02-28T02:21:15.217Z,-1.89
2019-02-28T02:23:49.672Z,-1.94
2019-02-28T02:26:19.064Z,-1.95
2019-02-28T02:28:49.466Z,-2.02
2019-02-28T02:31:19.858Z,-2.04
2019-02-28T02:33:52.454Z,-2.05
2019-02-28T02:36:22.389Z,-2.04
2019-02-28T02:38:52.801Z,-2.01
2019-02-28T02:41:23.203Z,-2.06
2019-02-28T02:43:54.979Z,-2.11
2019-02-28T02:46:27.362Z,-2.10
2019-02-28T02:48:57.851Z,-2.07
2019-02-28T02:51:28.283Z,-2.09
2019-02-28T02:53:58.717Z,-2.08
2019-02-28T02:56:29.153Z,-2.09
2019-02-28T02:59:01.140Z,-2.15
2019-02-28T03:01:31.604Z,-2.12
2019-02-28T03:04:02.060Z,-2.19
2019-02-28T03:06:32.496Z,-2.18
2019-02-28T03:09:04.998Z,-2.14
2019-02-28T03:11:35.437Z,-2.15
2019-02-28T03:14:05.837Z,-2.12
2019-02-28T03:16:36.229Z,-2.11
2019-02-28T03:19:06.646Z,-2.11
2019-02-28T03:21:37.027Z,-2.14
2019-02-28T03:24:07.414Z,-2.09
2019-02-28T03:26:41.583Z,-2.05
2019-02-28T03:29:09.940Z,-2.02
2019-02-28T03:31:40.338Z,-2.06
2019-02-28T03:34:13.792Z,-2.06
2019-02-28T03:36:42.818Z,-2.09
2019-02-28T03:39:13.241Z,-2.06
2019-02-28T03:41:43.690Z,-2.08
2019-02-28T03:44:20.030Z,-2.14
2019-02-28T03:46:47.978Z,-2.14
2019-02-28T03:49:18.433Z,-2.13
2019-02-28T03:51:48.866Z,-2.11
2019-02-28T03:54:19.321Z,-2.09
2019-02-28T03:56:52.699Z,-2.03
2019-02-28T03:59:21.893Z,-2.01
2019-02-28T04:01:52.328Z,-1.97
2019-02-28T04:04:22.713Z,-2.04
2019-02-28T04:06:53.128Z,-2.06
2019-02-28T04:09:25.102Z,-2.09
2019-02-28T04:11:55.494Z,-2.07
2019-02-28T04:14:28.255Z,-2.10
2019-02-28T04:16:58.029Z,-2.17
2019-02-28T04:19:28.463Z,-2.21
2019-02-28T04:21:59.768Z,-2.21
2019-02-28T04:24:30.202Z,-2.21
2019-02-28T04:27:06.265Z,-2.22
2019-02-28T04:29:32.661Z,-2.16
2019-02-28T04:32:03.150Z,-2.14
2019-02-28T04:34:33.570Z,-2.10
2019-02-28T04:37:03.987Z,-2.14
2019-02-28T04:39:34.428Z,-2.10
2019-02-28T04:42:05.172Z,-2.12
2019-02-28T04:44:36.499Z,-2.04
2019-02-28T04:47:07.653Z,-1.98
2019-02-28T04:49:38.124Z,-2.02
2019-02-28T04:52:11.767Z,-1.92
2019-02-28T04:54:41.293Z,-1.97
2019-02-28T04:57:11.774Z,-1.83
2019-02-28T04:59:43.422Z,-1.72
2019-02-28T05:02:13.844Z,-1.74
2019-02-28T05:04:44.297Z,-1.82
2019-02-28T05:07:14.751Z,-1.85
2019-02-28T05:09:48.035Z,-1.82
2019-02-28T05:12:17.308Z,-1.75
2019-02-28T05:14:47.703Z,-1.86
2019-02-28T05:17:19.317Z,-1.69
2019-02-28T05:19:50.267Z,-1.40
2019-02-28T05:22:20.688Z,-1.42
2019-02-28T05:24:51.090Z,-1.55
2019-02-28T05:27:24.423Z,-1.51
2019-02-28T05:29:55.007Z,-1.25
2019-02-28T05:32:25.412Z,-1.25
2019-02-28T05:34:55.840Z,-1.26
2019-02-28T05:37:26.341Z,-1.36
2019-02-28T05:40:05.622Z,-1.37
2019-02-28T05:42:31.694Z,-1.38
2019-02-28T05:45:02.131Z,-1.11
2019-02-28T05:47:45.766Z,-1.08
2019-02-28T05:50:15.196Z,-0.93
2019-02-28T05:52:43.992Z,-0.97
2019-02-28T05:55:14.400Z,-0.99
2019-02-28T05:57:46.495Z,-0.99
2019-02-28T06:00:18.494Z,-0.96
2019-02-28T06:02:48.934Z,-0.79
2019-02-28T06:05:20.929Z,-0.72
2019-02-28T06:07:51.332Z,-0.86
2019-02-28T06:10:24.663Z,-0.86
2019-02-28T06:12:53.835Z,-0.74
2019-02-28T06:15:25.752Z,-0.56
2019-02-28T06:17:56.279Z,-0.35
2019-02-28T06:20:26.714Z,-0.18
2019-02-28T06:22:57.106Z,-0.03
2019-02-28T06:25:27.530Z,0.10
2019-02-28T06:27:57.979Z,0.09
2019-02-28T06:30:28.500Z,-0.14
2019-02-28T06:32:59.543Z,-0.18
2019-02-28T06:35:30.051Z,0.08
2019-02-28T06:38:00.487Z,0.02
2019-02-28T06:40:33.118Z,0.10
2019-02-28T06:43:03.020Z,0.29
2019-02-28T06:45:36.720Z,0.34
2019-02-28T06:48:05.528Z,0.10
2019-02-28T06:50:35.971Z,0.44
2019-02-28T06:53:06.379Z,0.17
2019-02-28T06:55:38.393Z,0.35
2019-02-28T06:58:08.816Z,0.44
2019-02-28T07:00:39.215Z,0.62
2019-02-28T07:03:10.670Z,0.40
2019-02-28T07:05:41.050Z,0.60
2019-02-28T07:08:13.736Z,0.98
2019-02-28T07:10:44.912Z,1.08
2019-02-28T07:13:16.299Z,1.15
2019-02-28T07:15:46.719Z,1.05
2019-02-28T07:18:18.920Z,0.75
2019-02-28T07:20:49.330Z,1.13
2019-02-28T07:23:22.184Z,1.11
2019-02-28T07:25:52.562Z,1.05
2019-02-28T07:28:22.964Z,1.35
2019-02-28T07:30:54.418Z,1.23
2019-02-28T07:33:24.870Z,1.41
2019-02-28T07:36:09.583Z,1.33
2019-02-28T07:38:40.723Z,1.38
2019-02-28T07:41:11.199Z,1.49
2019-02-28T07:43:45.911Z,1.56
2019-02-28T07:46:15.458Z,1.59
2019-02-28T07:48:46.044Z,1.45
2019-02-28T07:51:18.470Z,1.55
2019-02-28T07:53:49.102Z,1.55
2019-02-28T07:56:19.531Z,1.46
2019-02-28T07:58:50.030Z,1.71
2019-02-28T08:01:20.435Z,2.02
2019-02-28T08:03:50.963Z,2.28
2019-02-28T08:06:21.558Z,2.37
2019-02-28T08:08:54.702Z,2.21
2019-02-28T08:11:25.338Z,2.07
2019-02-28T08:13:55.848Z,2.35
2019-02-28T08:16:30.594Z,2.45
2019-02-28T08:19:01.390Z,1.99
2019-02-28T08:21:31.793Z,2.11
2019-02-28T08:24:02.552Z,2.07
2019-02-28T08:26:34.570Z,2.21
2019-02-28T08:29:07.971Z,2.19
2019-02-28T08:31:37.325Z,2.11
2019-02-28T08:34:10.734Z,2.10
2019-02-28T08:36:43.849Z,2.25
2019-02-28T08:39:16.196Z,2.40
2019-02-28T08:41:47.199Z,2.50
2019-02-28T08:44:23.956Z,2.49
2019-02-28T08:46:54.607Z,2.04
2019-02-28T08:49:25.041Z,2.55
2019-02-28T08:51:55.667Z,2.65
2019-02-28T08:54:27.213Z,2.37
2019-02-28T08:56:58.129Z,2.70
2019-02-28T08:59:28.604Z,2.59
2019-02-28T09:01:59.068Z,3.06
2019-02-28T09:04:29.658Z,2.58
2019-02-28T09:07:00.226Z,2.80
2019-02-28T09:09:31.679Z,2.74
2019-02-28T09:12:02.985Z,2.86
2019-02-28T09:14:33.494Z,2.88
2019-02-28T09:17:03.852Z,2.82
2019-02-28T09:19:36.059Z,2.98
2019-02-28T09:22:06.288Z,3.02
2019-02-28T09:24:36.688Z,3.03
2019-02-28T09:27:07.214Z,2.93
2019-02-28T09:29:37.639Z,2.86
2019-02-28T09:32:10.291Z,2.89
2019-02-28T09:34:41.318Z,3.24
2019-02-28T09:37:11.847Z,3.28
2019-02-28T09:39:42.306Z,3.12
2019-02-28T09:42:15.702Z,3.28
2019-02-28T09:44:46.312Z,2.94
2019-02-28T09:47:16.865Z,3.10
2019-02-28T09:49:48.005Z,3.01
2019-02-28T09:52:18.563Z,2.98
2019-02-28T09:54:49.038Z,3.14
2019-02-28T09:57:19.874Z,3.21
2019-02-28T09:59:52.082Z,3.04
2019-02-28T10:02:25.259Z,3.36
2019-02-28T10:04:55.704Z,3.10
2019-02-28T10:07:26.535Z,3.11
2019-02-28T10:09:57.585Z,3.60
2019-02-28T10:12:28.017Z,3.79
2019-02-28T10:15:00.542Z,4.12
2019-02-28T10:17:32.370Z,4.28
2019-02-28T10:20:11.421Z,4.06
2019-02-28T10:22:44.327Z,4.08
2019-02-28T10:25:14.659Z,4.00
2019-02-28T10:27:48.659Z,3.83
2019-02-28T10:30:31.236Z,3.84
2019-02-28T10:32:58.745Z,4.07
2019-02-28T10:35:29.156Z,4.17
2019-02-28T10:37:59.609Z,3.73
2019-02-28T10:40:30.969Z,3.95
2019-02-28T10:43:01.451Z,4.01
2019-02-28T10:45:31.851Z,3.82
2019-02-28T10:48:07.446Z,3.94
2019-02-28T10:50:42.256Z,3.87
2019-02-28T10:53:13.071Z,3.84
2019-02-28T10:55:43.586Z,3.72
2019-02-28T10:58:15.466Z,3.66
2019-02-28T11:00:46.631Z,3.84
2019-02-28T11:03:17.341Z,3.92
2019-02-28T11:05:53.327Z,3.75
2019-02-28T11:08:21.726Z,3.68
2019-02-28T11:10:56.595Z,4.06
2019-02-28T11:13:28.505Z,3.79
2019-02-28T11:15:59.359Z,3.68
2019-02-28T11:18:32.351Z,3.53
2019-02-28T11:21:02.863Z,3.37
2019-02-28T11:23:33.366Z,3.37
2019-02-28T11:26:06.523Z,3.42
2019-02-28T11:28:35.979Z,3.28
2019-02-28T11:31:06.525Z,3.23
2019-02-28T11:33:41.095Z,3.22
2019-02-28T11:36:11.761Z,3.24
2019-02-28T11:38:43.913Z,3.23
2019-02-28T11:41:18.578Z,3.34
2019-02-28T11:43:54.373Z,3.40
2019-02-28T11:46:25.227Z,3.54
2019-02-28T11:48:56.985Z,3.59
2019-02-28T11:51:27.649Z,3.73
2019-02-28T11:53:59.699Z,3.40
2019-02-28T11:56:30.135Z,3.59
2019-02-28T11:59:00.545Z,3.52
2019-02-28T12:01:30.946Z,3.63
2019-02-28T12:04:02.930Z,3.54
2019-02-28T12:06:34.269Z,3.60
2019-02-28T12:09:06.349Z,3.59
2019-02-28T12:11:37.220Z,3.51
2019-02-28T12:14:07.772Z,3.61
2019-02-28T12:16:41.513Z,3.57
2019-02-28T12:19:12.469Z,3.44
2019-02-28T12:22:14.730Z,3.59
2019-02-28T12:24:21.023Z,3.56
2019-02-28T12:26:55.293Z,3.64
2019-02-28T12:29:27.585Z,3.45
2019-02-28T12:31:58.964Z,3.60
2019-02-28T12:34:34.528Z,3.53
2019-02-28T12:37:05.005Z,3.61
2019-02-28T12:39:37.098Z,3.61
2019-02-28T12:42:09.233Z,3.66
2019-02-28T12:44:39.785Z,3.56
2019-02-28T12:47:10.295Z,3.53
2019-02-28T12:49:41.240Z,3.46
2019-02-28T12:52:14.608Z,3.57
2019-02-28T12:54:44.023Z,3.56
2019-02-28T12:57:14.438Z,3.57
2019-02-28T12:59:45.996Z,3.66
2019-02-28T13:02:17.153Z,3.65
2019-02-28T13:04:49.143Z,3.68
2019-02-28T13:07:20.280Z,3.73
2019-02-28T13:09:51.452Z,3.60
2019-02-28T13:12:23.608Z,3.71
2019-02-28T13:14:54.818Z,3.73
2019-02-28T13:17:25.319Z,3.73
2019-02-28T13:19:56.718Z,3.78
2019-02-28T13:22:29.503Z,3.86
2019-02-28T13:25:00.934Z,3.90
2019-02-28T13:27:32.181Z,3.80
2019-02-28T13:30:05.359Z,3.74
2019-02-28T13:32:38.133Z,3.74
2019-02-28T13:35:10.199Z,3.81
2019-02-28T13:37:44.822Z,3.75
2019-02-28T13:40:16.255Z,3.81
2019-02-28T13:42:46.902Z,3.76
2019-02-28T13:45:23.073Z,3.77
2019-02-28T13:47:50.982Z,3.76
2019-02-28T13:50:29.587Z,3.80
2019-02-28T13:53:02.618Z,3.92
2019-02-28T13:55:32.350Z,3.88
2019-02-28T13:58:03.816Z,3.80
2019-02-28T14:00:35.823Z,3.75
2019-02-28T14:03:10.527Z,3.76
2019-02-28T14:05:41.741Z,3.78
2019-02-28T14:08:12.686Z,3.84
2019-02-28T14:10:44.716Z,3.84
2019-02-28T14:13:15.314Z,3.76
2019-02-28T14:15:52.699Z,3.88
2019-02-28T14:18:20.322Z,3.88
2019-02-28T14:20:51.072Z,3.89
2019-02-28T14:23:21.774Z,3.85
2019-02-28T14:25:52.200Z,3.83
2019-02-28T14:28:22.627Z,3.82
2019-02-28T14:30:57.562Z,3.79
2019-02-28T14:33:25.317Z,3.84
2019-02-28T14:35:56.023Z,3.80
2019-02-28T14:38:29.557Z,3.88
2019-02-28T14:40:59.413Z,3.84
2019-02-28T14:43:29.994Z,3.86
2019-02-28T14:46:00.423Z,3.82
2019-02-28T14:48:30.933Z,3.88
2019-02-28T14:51:03.669Z,3.88
2019-02-28T14:53:33.688Z,3.94
2019-02-28T14:56:07.428Z,3.87
2019-02-28T14:58:38.007Z,3.83
2019-02-28T15:01:08.813Z,3.86
2019-02-28T15:03:39.323Z,3.91
2019-02-28T15:06:09.982Z,3.91
2019-02-28T15:08:40.475Z,3.94
2019-02-28T15:11:11.525Z,3.95
2019-02-28T15:13:41.963Z,3.92
2019-02-28T15:16:13.773Z,3.97
2019-02-28T15:18:47.134Z,3.96
2019-02-28T15:21:16.469Z,3.94
2019-02-28T15:23:48.478Z,3.96
2019-02-28T15:26:18.935Z,3.98
2019-02-28T15:28:49.541Z,4.00
2019-02-28T15:31:20.106Z,3.95
2019-02-28T15:33:50.608Z,4.01
2019-02-28T15:36:24.164Z,3.99
2019-02-28T15:38:54.759Z,4.01
2019-02-28T15:41:25.447Z,4.01
2019-02-28T15:43:56.042Z,4.03
2019-02-28T15:46:29.487Z,4.05
2019-02-28T15:48:59.889Z,4.02
2019-02-28T15:51:30.408Z,3.99
2019-02-28T15:54:01.070Z,3.98
2019-02-28T15:56:31.494Z,3.94
2019-02-28T15:59:03.489Z,3.98
2019-02-28T16:01:37.234Z,3.96
2019-02-28T16:04:07.872Z,4.00
2019-02-28T16:06:38.368Z,3.95
2019-02-28T16:09:11.519Z,4.00
2019-02-28T16:11:43.135Z,3.94
2019-02-28T16:14:14.776Z,3.96
2019-02-28T16:16:45.590Z,4.02
2019-02-28T16:19:18.898Z,4.03
2019-02-28T16:21:48.255Z,4.03
2019-02-28T16:24:18.682Z,4.00
2019-02-28T16:26:56.765Z,4.00
2019-02-28T16:29:35.484Z,4.03
2019-02-28T16:32:05.998Z,3.99
2019-02-28T16:34:38.737Z,4.02
2019-02-28T16:37:10.246Z,3.96
2019-02-28T16:39:40.744Z,3.93
2019-02-28T16:42:14.651Z,3.92
2019-02-28T16:44:46.866Z,3.90
2019-02-28T16:47:17.332Z,3.87
2019-02-28T16:49:49.051Z,3.81
2019-02-28T16:52:19.506Z,3.82
2019-02-28T16:54:50.026Z,3.80
2019-02-28T16:57:22.724Z,3.84
2019-02-28T16:59:53.193Z,3.86
2019-02-28T17:02:26.434Z,3.82
2019-02-28T17:04:59.670Z,3.84
2019-02-28T17:07:30.365Z,3.83
2019-02-28T17:10:01.692Z,3.86
2019-02-28T17:12:36.225Z,3.85
2019-02-28T17:15:12.523Z,3.83
2019-02-28T17:17:46.953Z,3.83
2019-02-28T17:20:16.871Z,3.85
2019-02-28T17:22:47.362Z,3.87
2019-02-28T17:25:18.497Z,3.82
2019-02-28T17:27:51.594Z,3.85
2019-02-28T17:30:36.245Z,3.85
2019-02-28T17:33:09.880Z,3.85
2019-02-28T17:35:47.826Z,3.84
2019-02-28T17:38:22.103Z,3.87
2019-02-28T17:40:53.496Z,3.87
2019-02-28T17:43:25.255Z,3.80
2019-02-28T17:45:55.810Z,3.80
2019-02-28T17:49:02.451Z,3.76
2019-02-28T17:52:01.065Z,3.77
2019-02-28T17:54:37.734Z,3.71
2019-02-28T17:57:18.476Z,3.65
2019-02-28T18:00:16.138Z,3.68
2019-02-28T18:03:20.346Z,3.65
2019-02-28T18:06:11.937Z,3.61
2019-02-28T18:08:49.847Z,3.64
2019-02-28T18:11:51.414Z,3.68
2019-02-28T18:14:31.211Z,3.66
2019-02-28T18:17:38.300Z,3.75
2019-02-28T18:20:20.937Z,3.68
2019-02-28T18:23:04.659Z,3.70
2019-02-28T18:25:41.149Z,3.65
2019-02-28T18:28:18.936Z,3.68
2019-02-28T18:31:09.672Z,3.72
2019-02-28T18:33:45.127Z,3.71
2019-02-28T18:36:18.056Z,3.68
2019-02-28T18:38:51.271Z,3.70
2019-02-28T18:41:29.274Z,3.65
2019-02-28T18:44:03.307Z,3.63
2019-02-28T18:46:31.920Z,3.61
2019-02-28T18:49:02.314Z,3.63
2019-02-28T18:51:32.719Z,3.55
2019-02-28T18:54:04.332Z,3.52
2019-02-28T18:56:34.861Z,3.47
2019-02-28T18:59:05.269Z,3.47
2019-02-28T19:01:37.286Z,3.34
2019-02-28T19:04:07.792Z,3.35
2019-02-28T19:06:39.204Z,3.31
2019-02-28T19:09:23.104Z,3.32
2019-02-28T19:11:53.638Z,3.36
2019-02-28T19:14:25.427Z,3.37
2019-02-28T19:16:55.896Z,3.35
2019-02-28T19:19:28.457Z,3.38
2019-02-28T19:22:01.850Z,3.35
2019-02-28T19:24:35.240Z,3.38
2019-02-28T19:27:07.179Z,3.37
2019-02-28T19:29:37.689Z,3.30
2019-02-28T19:32:08.388Z,3.28
2019-02-28T19:34:38.813Z,3.26
2019-02-28T19:37:09.319Z,3.23
2019-02-28T19:39:39.767Z,3.19
2019-02-28T19:42:11.782Z,3.13
2019-02-28T19:44:43.752Z,2.99
2019-02-28T19:47:14.209Z,2.88
2019-02-28T19:49:44.626Z,2.93
2019-02-28T19:52:15.071Z,2.92
2019-02-28T19:54:45.558Z,2.73
2019-02-28T19:57:15.999Z,2.95
2019-02-28T19:59:46.410Z,3.05
2019-02-28T20:02:20.073Z,3.18
2019-02-28T20:04:50.540Z,3.23
2019-02-28T20:07:20.985Z,3.31
2019-02-28T20:09:53.251Z,3.35
2019-02-28T20:12:23.693Z,3.33
2019-02-28T20:14:54.135Z,3.42
2019-02-28T20:17:24.682Z,3.40
2019-02-28T20:19:55.740Z,3.44
2019-02-28T20:22:26.263Z,3.50
2019-02-28T20:24:58.160Z,3.68
2019-02-28T20:27:30.175Z,3.72
2019-02-28T20:30:02.233Z,3.74
2019-02-28T20:32:32.619Z,3.72
2019-02-28T20:35:03.098Z,3.72
2019-02-28T20:37:33.537Z,3.70
2019-02-28T20:40:06.142Z,3.65
2019-02-28T20:42:36.584Z,3.70
2019-02-28T20:45:10.170Z,3.77
2019-02-28T20:47:40.565Z,3.96
2019-02-28T20:50:14.198Z,4.07
2019-02-28T20:52:44.621Z,4.09
2019-02-28T20:55:15.044Z,4.21
2019-02-28T20:57:46.445Z,4.22
2019-02-28T21:00:19.325Z,4.18
2019-02-28T21:02:51.496Z,4.28
2019-02-28T21:05:24.787Z,4.38
2019-02-28T21:07:56.681Z,4.40
2019-02-28T21:10:27.236Z,4.43
2019-02-28T21:12:57.700Z,4.46
2019-02-28T21:15:28.077Z,4.51
2019-02-28T21:17:58.519Z,4.51
2019-02-28T21:20:31.706Z,4.51
2019-02-28T21:23:02.063Z,4.53
2019-02-28T21:25:32.602Z,4.69
2019-02-28T21:28:04.580Z,4.75
2019-02-28T21:30:35.032Z,4.84
2019-02-28T21:33:05.490Z,4.91
2019-02-28T21:35:35.873Z,4.92
2019-02-28T21:38:06.369Z,5.01
2019-02-28T21:40:36.788Z,5.14
2019-02-28T21:43:07.172Z,5.26
2019-02-28T21:45:37.574Z,5.27
2019-02-28T21:48:07.969Z,5.33
2019-02-28T21:50:38.423Z,5.39
2019-02-28T21:53:08.894Z,5.40
2019-02-28T21:55:39.339Z,5.42
2019-02-28T21:58:09.759Z,5.43
2019-02-28T22:00:40.214Z,5.41
2019-02-28T22:03:10.663Z,5.37
2019-02-28T22:05:41.046Z,5.33
2019-02-28T22:08:11.446Z,5.25
2019-02-28T22:10:41.858Z,5.26
2019-02-28T22:13:14.733Z,5.26
2019-02-28T22:15:45.140Z,5.28
2019-02-28T22:18:15.533Z,5.28
2019-02-28T22:20:45.952Z,5.21
2019-02-28T22:23:16.382Z,5.02
2019-02-28T22:25:46.795Z,4.91
2019-02-28T22:28:17.240Z,4.86
2019-02-28T22:30:49.159Z,4.84
2019-02-28T22:33:37.164Z,4.82
2019-02-28T22:36:14.912Z,4.76
2019-02-28T22:38:46.908Z,4.78
2019-02-28T22:41:17.287Z,4.73
2019-02-28T22:43:47.714Z,4.69
2019-02-28T22:46:18.164Z,4.63
2019-02-28T22:48:48.569Z,4.51
2019-02-28T22:51:18.951Z,4.44
2019-02-28T22:53:49.424Z,4.32
2019-02-28T22:56:19.789Z,4.25
2019-02-28T22:58:50.214Z,4.11
2019-02-28T23:01:24.069Z,4.03
2019-02-28T23:03:56.936Z,3.91
2019-02-28T23:06:27.349Z,3.83
2019-02-28T23:08:57.752Z,3.70
2019-02-28T23:11:28.195Z,3.61
2019-02-28T23:13:58.597Z,3.50
2019-02-28T23:16:29.038Z,3.41
2019-02-28T23:18:59.422Z,3.37
2019-02-28T23:21:29.842Z,3.36
2019-02-28T23:24:00.284Z,3.39
2019-02-28T23:26:30.689Z,3.36
2019-02-28T23:29:04.225Z,3.35
2019-02-28T23:31:49.676Z,3.39
2019-02-28T23:34:26.165Z,3.43
2019-02-28T23:36:56.570Z,3.38
2019-02-28T23:39:27.000Z,3.40
2019-02-28T23:41:57.434Z,3.34
2019-02-28T23:44:27.826Z,3.42
2019-02-28T23:46:58.227Z,3.44
2019-02-28T23:49:28.612Z,3.45
2019-02-28T23:51:59.018Z,3.43
2019-02-28T23:54:29.431Z,3.41
2019-02-28T23:56:59.823Z,3.42
2019-02-28T23:59:30.270Z,3.36
